sensor_id;sensor_type;location;lat;lon;timestamp;temperature;humidity
33903;DHT22;20194;50.950;5.346;2023-04-24T00:00:01;10.20;54.50
33903;DHT22;20194;50.950;5.346;2023-04-24T00:02:28;10.30;54.90
33903;DHT22;20194;50.950;5.346;2023-04-24T00:04:54;10.30;55.10
33903;DHT22;20194;50.950;5.346;2023-04-24T00:07:20;10.20;55.00
33903;DHT22;20194;50.950;5.346;2023-04-24T00:09:46;10.20;55.50
33903;DHT22;20194;50.950;5.346;2023-04-24T00:12:12;10.20;55.00
33903;DHT22;20194;50.950;5.346;2023-04-24T00:14:38;10.20;55.60
33903;DHT22;20194;50.950;5.346;2023-04-24T00:17:03;10.30;55.40
33903;DHT22;20194;50.950;5.346;2023-04-24T00:19:29;10.20;56.30
33903;DHT22;20194;50.950;5.346;2023-04-24T00:21:55;10.20;56.30
33903;DHT22;20194;50.950;5.346;2023-04-24T00:24:21;10.20;56.10
33903;DHT22;20194;50.950;5.346;2023-04-24T00:26:47;10.30;56.10
33903;DHT22;20194;50.950;5.346;2023-04-24T00:29:12;10.30;56.30
33903;DHT22;20194;50.950;5.346;2023-04-24T00:31:38;10.30;55.70
33903;DHT22;20194;50.950;5.346;2023-04-24T00:34:04;10.30;56.20
33903;DHT22;20194;50.950;5.346;2023-04-24T00:36:31;10.30;55.90
33903;DHT22;20194;50.950;5.346;2023-04-24T00:38:57;10.20;55.40
33903;DHT22;20194;50.950;5.346;2023-04-24T00:41:24;10.10;56.40
33903;DHT22;20194;50.950;5.346;2023-04-24T00:43:51;10.10;57.30
33903;DHT22;20194;50.950;5.346;2023-04-24T00:46:17;10.10;57.30
33903;DHT22;20194;50.950;5.346;2023-04-24T00:48:43;10.10;57.50
33903;DHT22;20194;50.950;5.346;2023-04-24T00:51:09;10.10;58.00
33903;DHT22;20194;50.950;5.346;2023-04-24T00:53:35;10.20;57.40
33903;DHT22;20194;50.950;5.346;2023-04-24T00:56:02;10.10;57.50
33903;DHT22;20194;50.950;5.346;2023-04-24T00:58:28;10.10;57.70
33903;DHT22;20194;50.950;5.346;2023-04-24T01:00:54;10.10;58.60
33903;DHT22;20194;50.950;5.346;2023-04-24T01:03:25;10.10;58.40
33903;DHT22;20194;50.950;5.346;2023-04-24T01:05:52;10.20;58.50
33903;DHT22;20194;50.950;5.346;2023-04-24T01:08:21;10.20;57.70
33903;DHT22;20194;50.950;5.346;2023-04-24T01:10:51;10.20;57.80
33903;DHT22;20194;50.950;5.346;2023-04-24T01:13:18;10.20;58.30
33903;DHT22;20194;50.950;5.346;2023-04-24T01:15:44;10.20;57.90
33903;DHT22;20194;50.950;5.346;2023-04-24T01:18:10;10.30;58.00
33903;DHT22;20194;50.950;5.346;2023-04-24T01:20:39;10.20;57.60
33903;DHT22;20194;50.950;5.346;2023-04-24T01:23:06;10.20;58.00
33903;DHT22;20194;50.950;5.346;2023-04-24T01:25:32;10.10;58.90
33903;DHT22;20194;50.950;5.346;2023-04-24T01:27:59;10.10;58.40
33903;DHT22;20194;50.950;5.346;2023-04-24T01:30:25;10.10;58.60
33903;DHT22;20194;50.950;5.346;2023-04-24T01:32:51;10.10;58.30
33903;DHT22;20194;50.950;5.346;2023-04-24T01:35:17;10.10;58.80
33903;DHT22;20194;50.950;5.346;2023-04-24T01:37:43;10.10;57.90
33903;DHT22;20194;50.950;5.346;2023-04-24T01:40:09;10.10;58.60
33903;DHT22;20194;50.950;5.346;2023-04-24T01:42:35;10.10;58.40
33903;DHT22;20194;50.950;5.346;2023-04-24T01:45:03;10.10;58.10
33903;DHT22;20194;50.950;5.346;2023-04-24T01:47:30;10.10;58.40
33903;DHT22;20194;50.950;5.346;2023-04-24T01:49:56;10.10;58.30
33903;DHT22;20194;50.950;5.346;2023-04-24T01:52:22;10.00;58.50
33903;DHT22;20194;50.950;5.346;2023-04-24T01:54:48;10.00;59.30
33903;DHT22;20194;50.950;5.346;2023-04-24T01:57:14;9.90;58.70
33903;DHT22;20194;50.950;5.346;2023-04-24T01:59:41;9.90;59.30
33903;DHT22;20194;50.950;5.346;2023-04-24T02:02:07;9.90;59.30
33903;DHT22;20194;50.950;5.346;2023-04-24T02:04:33;10.00;59.30
33903;DHT22;20194;50.950;5.346;2023-04-24T02:06:59;10.00;58.20
33903;DHT22;20194;50.950;5.346;2023-04-24T02:09:25;9.90;59.00
33903;DHT22;20194;50.950;5.346;2023-04-24T02:11:50;9.90;59.00
33903;DHT22;20194;50.950;5.346;2023-04-24T02:14:16;9.90;60.40
33903;DHT22;20194;50.950;5.346;2023-04-24T02:16:42;9.90;61.90
33903;DHT22;20194;50.950;5.346;2023-04-24T02:19:09;9.80;63.70
33903;DHT22;20194;50.950;5.346;2023-04-24T02:21:35;9.80;65.00
33903;DHT22;20194;50.950;5.346;2023-04-24T02:24:00;9.80;64.80
33903;DHT22;20194;50.950;5.346;2023-04-24T02:26:26;9.80;64.90
33903;DHT22;20194;50.950;5.346;2023-04-24T02:28:52;9.80;64.60
33903;DHT22;20194;50.950;5.346;2023-04-24T02:31:18;9.80;64.10
33903;DHT22;20194;50.950;5.346;2023-04-24T02:33:43;9.70;63.50
33903;DHT22;20194;50.950;5.346;2023-04-24T02:36:09;9.70;63.30
33903;DHT22;20194;50.950;5.346;2023-04-24T02:38:35;9.70;62.80
33903;DHT22;20194;50.950;5.346;2023-04-24T02:41:00;9.70;63.00
33903;DHT22;20194;50.950;5.346;2023-04-24T02:43:27;9.70;63.30
33903;DHT22;20194;50.950;5.346;2023-04-24T02:45:53;9.60;64.20
33903;DHT22;20194;50.950;5.346;2023-04-24T02:48:19;9.70;65.90
33903;DHT22;20194;50.950;5.346;2023-04-24T02:50:46;9.60;66.80
33903;DHT22;20194;50.950;5.346;2023-04-24T02:53:12;9.50;67.40
33903;DHT22;20194;50.950;5.346;2023-04-24T02:55:37;9.60;66.50
33903;DHT22;20194;50.950;5.346;2023-04-24T02:58:03;9.50;66.80
33903;DHT22;20194;50.950;5.346;2023-04-24T03:00:29;9.50;66.20
33903;DHT22;20194;50.950;5.346;2023-04-24T03:02:55;9.50;66.80
33903;DHT22;20194;50.950;5.346;2023-04-24T03:05:21;9.50;66.90
33903;DHT22;20194;50.950;5.346;2023-04-24T03:07:46;9.40;67.30
33903;DHT22;20194;50.950;5.346;2023-04-24T03:10:12;9.40;67.60
33903;DHT22;20194;50.950;5.346;2023-04-24T03:12:38;9.40;68.00
33903;DHT22;20194;50.950;5.346;2023-04-24T03:15:04;9.30;68.40
33903;DHT22;20194;50.950;5.346;2023-04-24T03:17:30;9.40;68.90
33903;DHT22;20194;50.950;5.346;2023-04-24T03:19:56;9.30;68.70
33903;DHT22;20194;50.950;5.346;2023-04-24T03:22:21;9.30;69.10
33903;DHT22;20194;50.950;5.346;2023-04-24T03:24:47;9.40;69.80
33903;DHT22;20194;50.950;5.346;2023-04-24T03:27:13;9.40;69.40
33903;DHT22;20194;50.950;5.346;2023-04-24T03:29:39;9.40;70.10
33903;DHT22;20194;50.950;5.346;2023-04-24T03:32:05;9.30;70.90
33903;DHT22;20194;50.950;5.346;2023-04-24T03:34:31;9.30;72.70
33903;DHT22;20194;50.950;5.346;2023-04-24T03:36:57;9.20;72.20
33903;DHT22;20194;50.950;5.346;2023-04-24T03:39:22;9.30;72.80
33903;DHT22;20194;50.950;5.346;2023-04-24T03:41:49;9.30;71.50
33903;DHT22;20194;50.950;5.346;2023-04-24T03:44:15;9.20;71.40
33903;DHT22;20194;50.950;5.346;2023-04-24T03:46:41;9.20;71.80
33903;DHT22;20194;50.950;5.346;2023-04-24T03:49:06;9.20;71.80
33903;DHT22;20194;50.950;5.346;2023-04-24T03:51:32;9.20;72.40
33903;DHT22;20194;50.950;5.346;2023-04-24T03:53:58;9.20;71.80
33903;DHT22;20194;50.950;5.346;2023-04-24T03:56:23;9.20;72.40
33903;DHT22;20194;50.950;5.346;2023-04-24T03:58:49;9.30;72.40
33903;DHT22;20194;50.950;5.346;2023-04-24T04:01:15;9.30;71.30
33903;DHT22;20194;50.950;5.346;2023-04-24T04:03:41;9.30;71.50
33903;DHT22;20194;50.950;5.346;2023-04-24T04:06:07;9.30;71.50
33903;DHT22;20194;50.950;5.346;2023-04-24T04:08:33;9.20;70.80
33903;DHT22;20194;50.950;5.346;2023-04-24T04:10:59;9.20;72.10
33903;DHT22;20194;50.950;5.346;2023-04-24T04:13:24;9.20;72.30
33903;DHT22;20194;50.950;5.346;2023-04-24T04:15:50;9.20;72.10
33903;DHT22;20194;50.950;5.346;2023-04-24T04:18:16;9.20;72.30
33903;DHT22;20194;50.950;5.346;2023-04-24T04:20:42;9.20;72.30
33903;DHT22;20194;50.950;5.346;2023-04-24T04:23:07;9.10;72.80
33903;DHT22;20194;50.950;5.346;2023-04-24T04:25:33;9.10;73.00
33903;DHT22;20194;50.950;5.346;2023-04-24T04:27:59;9.00;73.20
33903;DHT22;20194;50.950;5.346;2023-04-24T04:30:25;9.00;75.30
33903;DHT22;20194;50.950;5.346;2023-04-24T04:32:51;9.10;74.80
33903;DHT22;20194;50.950;5.346;2023-04-24T04:35:17;9.00;75.50
33903;DHT22;20194;50.950;5.346;2023-04-24T04:37:43;9.10;75.90
33903;DHT22;20194;50.950;5.346;2023-04-24T04:40:09;9.00;76.70
33903;DHT22;20194;50.950;5.346;2023-04-24T04:42:37;8.90;77.00
33903;DHT22;20194;50.950;5.346;2023-04-24T04:45:07;8.80;77.60
33903;DHT22;20194;50.950;5.346;2023-04-24T04:47:34;8.80;78.60
33903;DHT22;20194;50.950;5.346;2023-04-24T04:50:01;8.80;78.70
33903;DHT22;20194;50.950;5.346;2023-04-24T04:52:26;8.80;78.70
33903;DHT22;20194;50.950;5.346;2023-04-24T04:54:52;8.90;79.80
33903;DHT22;20194;50.950;5.346;2023-04-24T04:57:18;8.90;79.30
33903;DHT22;20194;50.950;5.346;2023-04-24T04:59:44;8.90;79.20
33903;DHT22;20194;50.950;5.346;2023-04-24T05:02:10;9.00;78.80
33903;DHT22;20194;50.950;5.346;2023-04-24T05:04:36;9.00;78.30
33903;DHT22;20194;50.950;5.346;2023-04-24T05:07:01;9.00;78.40
33903;DHT22;20194;50.950;5.346;2023-04-24T05:09:27;9.00;78.30
33903;DHT22;20194;50.950;5.346;2023-04-24T05:11:54;9.00;77.50
33903;DHT22;20194;50.950;5.346;2023-04-24T05:14:20;9.10;77.90
33903;DHT22;20194;50.950;5.346;2023-04-24T05:16:47;9.10;77.50
33903;DHT22;20194;50.950;5.346;2023-04-24T05:19:13;9.10;77.60
33903;DHT22;20194;50.950;5.346;2023-04-24T05:21:42;9.20;77.80
33903;DHT22;20194;50.950;5.346;2023-04-24T05:24:08;9.10;77.50
33903;DHT22;20194;50.950;5.346;2023-04-24T05:26:34;9.10;77.30
33903;DHT22;20194;50.950;5.346;2023-04-24T05:29:01;9.20;77.90
33903;DHT22;20194;50.950;5.346;2023-04-24T05:31:27;9.20;78.50
33903;DHT22;20194;50.950;5.346;2023-04-24T05:33:53;9.30;77.20
33903;DHT22;20194;50.950;5.346;2023-04-24T05:36:19;9.30;77.80
33903;DHT22;20194;50.950;5.346;2023-04-24T05:38:45;9.10;77.70
33903;DHT22;20194;50.950;5.346;2023-04-24T05:41:10;9.10;78.30
33903;DHT22;20194;50.950;5.346;2023-04-24T05:43:36;9.10;79.10
33903;DHT22;20194;50.950;5.346;2023-04-24T05:46:02;9.20;77.60
33903;DHT22;20194;50.950;5.346;2023-04-24T05:48:27;9.10;76.20
33903;DHT22;20194;50.950;5.346;2023-04-24T05:50:53;9.20;75.10
33903;DHT22;20194;50.950;5.346;2023-04-24T05:53:19;9.10;76.00
33903;DHT22;20194;50.950;5.346;2023-04-24T05:55:45;9.10;76.40
33903;DHT22;20194;50.950;5.346;2023-04-24T05:58:11;9.20;76.70
33903;DHT22;20194;50.950;5.346;2023-04-24T06:00:37;9.00;76.00
33903;DHT22;20194;50.950;5.346;2023-04-24T06:03:05;8.90;75.40
33903;DHT22;20194;50.950;5.346;2023-04-24T06:05:31;9.00;75.90
33903;DHT22;20194;50.950;5.346;2023-04-24T06:07:57;8.90;76.20
33903;DHT22;20194;50.950;5.346;2023-04-24T06:10:23;8.90;75.20
33903;DHT22;20194;50.950;5.346;2023-04-24T06:12:49;8.80;75.40
33903;DHT22;20194;50.950;5.346;2023-04-24T06:15:14;8.80;75.30
33903;DHT22;20194;50.950;5.346;2023-04-24T06:17:40;8.80;76.00
33903;DHT22;20194;50.950;5.346;2023-04-24T06:20:06;8.80;75.50
33903;DHT22;20194;50.950;5.346;2023-04-24T06:22:33;8.90;76.30
33903;DHT22;20194;50.950;5.346;2023-04-24T06:24:59;8.90;75.40
33903;DHT22;20194;50.950;5.346;2023-04-24T06:27:26;8.90;75.20
33903;DHT22;20194;50.950;5.346;2023-04-24T06:29:51;8.90;75.80
33903;DHT22;20194;50.950;5.346;2023-04-24T06:32:24;8.90;76.20
33903;DHT22;20194;50.950;5.346;2023-04-24T06:34:51;8.80;76.00
33903;DHT22;20194;50.950;5.346;2023-04-24T06:37:18;8.90;76.70
33903;DHT22;20194;50.950;5.346;2023-04-24T06:39:44;8.90;76.70
33903;DHT22;20194;50.950;5.346;2023-04-24T06:42:10;8.80;75.30
33903;DHT22;20194;50.950;5.346;2023-04-24T06:44:36;8.80;75.50
33903;DHT22;20194;50.950;5.346;2023-04-24T06:47:07;8.70;73.30
33903;DHT22;20194;50.950;5.346;2023-04-24T06:49:34;8.70;75.20
33903;DHT22;20194;50.950;5.346;2023-04-24T06:52:00;8.70;75.00
33903;DHT22;20194;50.950;5.346;2023-04-24T06:54:25;8.70;75.00
33903;DHT22;20194;50.950;5.346;2023-04-24T06:56:52;8.80;75.10
33903;DHT22;20194;50.950;5.346;2023-04-24T06:59:17;8.70;74.60
33903;DHT22;20194;50.950;5.346;2023-04-24T07:01:43;8.80;76.00
33903;DHT22;20194;50.950;5.346;2023-04-24T07:04:09;8.80;75.10
33903;DHT22;20194;50.950;5.346;2023-04-24T07:06:35;8.80;75.10
33903;DHT22;20194;50.950;5.346;2023-04-24T07:09:01;8.80;75.10
33903;DHT22;20194;50.950;5.346;2023-04-24T07:11:28;9.00;75.40
33903;DHT22;20194;50.950;5.346;2023-04-24T07:13:55;8.90;75.20
33903;DHT22;20194;50.950;5.346;2023-04-24T07:16:21;9.00;76.20
33903;DHT22;20194;50.950;5.346;2023-04-24T07:18:46;9.00;76.10
33903;DHT22;20194;50.950;5.346;2023-04-24T07:21:12;9.00;76.00
33903;DHT22;20194;50.950;5.346;2023-04-24T07:23:38;9.00;76.80
33903;DHT22;20194;50.950;5.346;2023-04-24T07:26:04;9.10;76.60
33903;DHT22;20194;50.950;5.346;2023-04-24T07:28:30;9.20;76.20
33903;DHT22;20194;50.950;5.346;2023-04-24T07:30:57;9.00;76.00
33903;DHT22;20194;50.950;5.346;2023-04-24T07:33:24;9.10;77.40
33903;DHT22;20194;50.950;5.346;2023-04-24T07:35:49;9.10;77.50
33903;DHT22;20194;50.950;5.346;2023-04-24T07:38:15;9.10;77.30
33903;DHT22;20194;50.950;5.346;2023-04-24T07:40:41;9.10;78.30
33903;DHT22;20194;50.950;5.346;2023-04-24T07:43:07;9.20;78.90
33903;DHT22;20194;50.950;5.346;2023-04-24T07:45:32;9.20;78.70
33903;DHT22;20194;50.950;5.346;2023-04-24T07:48:02;9.20;79.10
33903;DHT22;20194;50.950;5.346;2023-04-24T07:50:28;9.10;79.30
33903;DHT22;20194;50.950;5.346;2023-04-24T07:52:54;9.10;79.00
33903;DHT22;20194;50.950;5.346;2023-04-24T07:55:20;9.20;79.00
33903;DHT22;20194;50.950;5.346;2023-04-24T07:57:45;9.30;78.90
33903;DHT22;20194;50.950;5.346;2023-04-24T08:00:11;9.30;78.70
33903;DHT22;20194;50.950;5.346;2023-04-24T08:02:37;9.30;79.10
33903;DHT22;20194;50.950;5.346;2023-04-24T08:05:03;9.30;78.10
33903;DHT22;20194;50.950;5.346;2023-04-24T08:07:30;9.20;78.60
33903;DHT22;20194;50.950;5.346;2023-04-24T08:09:55;9.20;79.60
33903;DHT22;20194;50.950;5.346;2023-04-24T08:12:21;9.20;80.60
33903;DHT22;20194;50.950;5.346;2023-04-24T08:14:47;9.30;79.60
33903;DHT22;20194;50.950;5.346;2023-04-24T08:17:12;9.30;79.20
33903;DHT22;20194;50.950;5.346;2023-04-24T08:19:40;9.30;79.20
33903;DHT22;20194;50.950;5.346;2023-04-24T08:22:09;9.30;79.20
33903;DHT22;20194;50.950;5.346;2023-04-24T08:24:35;9.40;78.30
33903;DHT22;20194;50.950;5.346;2023-04-24T08:27:01;9.40;78.10
33903;DHT22;20194;50.950;5.346;2023-04-24T08:29:27;9.30;77.10
33903;DHT22;20194;50.950;5.346;2023-04-24T08:31:53;9.30;77.70
33903;DHT22;20194;50.950;5.346;2023-04-24T08:34:20;9.30;78.10
33903;DHT22;20194;50.950;5.346;2023-04-24T08:36:46;9.40;79.10
33903;DHT22;20194;50.950;5.346;2023-04-24T08:39:12;9.50;80.00
33903;DHT22;20194;50.950;5.346;2023-04-24T08:41:37;9.60;78.30
33903;DHT22;20194;50.950;5.346;2023-04-24T08:44:04;9.70;78.00
33903;DHT22;20194;50.950;5.346;2023-04-24T08:46:31;9.70;76.40
33903;DHT22;20194;50.950;5.346;2023-04-24T08:48:57;9.80;75.50
33903;DHT22;20194;50.950;5.346;2023-04-24T08:51:25;9.80;76.70
33903;DHT22;20194;50.950;5.346;2023-04-24T08:53:53;9.90;76.30
33903;DHT22;20194;50.950;5.346;2023-04-24T08:56:21;10.00;76.70
33903;DHT22;20194;50.950;5.346;2023-04-24T08:58:52;10.00;75.40
33903;DHT22;20194;50.950;5.346;2023-04-24T09:01:20;10.20;76.70
33903;DHT22;20194;50.950;5.346;2023-04-24T09:03:48;10.30;75.00
33903;DHT22;20194;50.950;5.346;2023-04-24T09:06:16;10.40;74.20
33903;DHT22;20194;50.950;5.346;2023-04-24T09:08:43;10.40;70.70
33903;DHT22;20194;50.950;5.346;2023-04-24T09:11:11;10.30;69.70
33903;DHT22;20194;50.950;5.346;2023-04-24T09:13:37;10.30;67.90
33903;DHT22;20194;50.950;5.346;2023-04-24T09:16:03;10.10;70.90
33903;DHT22;20194;50.950;5.346;2023-04-24T09:18:29;9.90;72.10
33903;DHT22;20194;50.950;5.346;2023-04-24T09:21:03;9.80;71.20
33903;DHT22;20194;50.950;5.346;2023-04-24T09:23:30;9.60;69.70
33903;DHT22;20194;50.950;5.346;2023-04-24T09:25:57;9.60;69.10
33903;DHT22;20194;50.950;5.346;2023-04-24T09:28:30;9.50;68.10
33903;DHT22;20194;50.950;5.346;2023-04-24T09:31:08;9.60;69.50
33903;DHT22;20194;50.950;5.346;2023-04-24T09:33:35;9.70;70.90
33903;DHT22;20194;50.950;5.346;2023-04-24T09:36:02;9.80;73.40
33903;DHT22;20194;50.950;5.346;2023-04-24T09:38:38;9.90;72.10
33903;DHT22;20194;50.950;5.346;2023-04-24T09:41:08;10.10;73.90
33903;DHT22;20194;50.950;5.346;2023-04-24T09:43:35;10.50;76.70
33903;DHT22;20194;50.950;5.346;2023-04-24T09:46:06;10.90;74.30
33903;DHT22;20194;50.950;5.346;2023-04-24T09:48:37;11.20;70.20
33903;DHT22;20194;50.950;5.346;2023-04-24T09:51:04;11.60;70.50
33903;DHT22;20194;50.950;5.346;2023-04-24T09:53:32;11.60;56.60
33903;DHT22;20194;50.950;5.346;2023-04-24T09:56:11;11.50;59.50
33903;DHT22;20194;50.950;5.346;2023-04-24T09:58:38;11.40;57.50
33903;DHT22;20194;50.950;5.346;2023-04-24T10:01:05;11.50;60.80
33903;DHT22;20194;50.950;5.346;2023-04-24T10:03:32;11.70;59.50
33903;DHT22;20194;50.950;5.346;2023-04-24T10:06:02;12.00;60.60
33903;DHT22;20194;50.950;5.346;2023-04-24T10:08:36;12.10;58.00
33903;DHT22;20194;50.950;5.346;2023-04-24T10:11:02;12.20;56.40
33903;DHT22;20194;50.950;5.346;2023-04-24T10:13:28;12.20;52.20
33903;DHT22;20194;50.950;5.346;2023-04-24T10:15:54;12.00;51.10
33903;DHT22;20194;50.950;5.346;2023-04-24T10:18:21;11.90;51.90
33903;DHT22;20194;50.950;5.346;2023-04-24T10:20:47;11.70;42.20
33903;DHT22;20194;50.950;5.346;2023-04-24T10:23:14;11.60;41.30
33903;DHT22;20194;50.950;5.346;2023-04-24T10:25:40;11.50;37.80
33903;DHT22;20194;50.950;5.346;2023-04-24T10:28:06;11.40;38.50
33903;DHT22;20194;50.950;5.346;2023-04-24T10:30:33;11.50;43.50
33903;DHT22;20194;50.950;5.346;2023-04-24T10:33:01;11.50;41.80
33903;DHT22;20194;50.950;5.346;2023-04-24T10:35:30;11.60;43.40
33903;DHT22;20194;50.950;5.346;2023-04-24T10:38:06;11.80;44.80
33903;DHT22;20194;50.950;5.346;2023-04-24T10:40:34;12.00;46.70
33903;DHT22;20194;50.950;5.346;2023-04-24T10:43:05;12.00;42.10
33903;DHT22;20194;50.950;5.346;2023-04-24T10:45:33;12.20;42.70
33903;DHT22;20194;50.950;5.346;2023-04-24T10:48:01;12.30;39.60
33903;DHT22;20194;50.950;5.346;2023-04-24T10:50:28;12.10;38.90
33903;DHT22;20194;50.950;5.346;2023-04-24T10:53:06;12.10;41.20
33903;DHT22;20194;50.950;5.346;2023-04-24T10:55:50;12.20;40.00
33903;DHT22;20194;50.950;5.346;2023-04-24T10:58:17;12.20;34.00
33903;DHT22;20194;50.950;5.346;2023-04-24T11:01:00;12.00;32.80
33903;DHT22;20194;50.950;5.346;2023-04-24T11:03:29;11.90;36.30
33903;DHT22;20194;50.950;5.346;2023-04-24T11:06:04;11.80;37.20
33903;DHT22;20194;50.950;5.346;2023-04-24T11:08:44;11.70;40.30
33903;DHT22;20194;50.950;5.346;2023-04-24T11:11:12;11.50;40.70
33903;DHT22;20194;50.950;5.346;2023-04-24T11:24:27;11.70;42.40
33903;DHT22;20194;50.950;5.346;2023-04-24T11:26:59;11.70;41.50
33903;DHT22;20194;50.950;5.346;2023-04-24T11:35:03;11.70;41.80
33903;DHT22;20194;50.950;5.346;2023-04-24T11:37:36;11.80;42.80
33903;DHT22;20194;50.950;5.346;2023-04-24T11:40:02;11.90;41.30
33903;DHT22;20194;50.950;5.346;2023-04-24T11:42:36;11.80;37.10
33903;DHT22;20194;50.950;5.346;2023-04-24T11:45:06;11.80;33.80
33903;DHT22;20194;50.950;5.346;2023-04-24T11:47:32;11.70;31.00
33903;DHT22;20194;50.950;5.346;2023-04-24T11:49:59;11.70;27.00
33903;DHT22;20194;50.950;5.346;2023-04-24T11:52:29;11.80;24.40
33903;DHT22;20194;50.950;5.346;2023-04-24T11:54:55;11.90;24.60
33903;DHT22;20194;50.950;5.346;2023-04-24T11:57:23;11.80;19.40
33903;DHT22;20194;50.950;5.346;2023-04-24T11:59:51;11.90;23.00
33903;DHT22;20194;50.950;5.346;2023-04-24T12:02:24;11.90;22.10
33903;DHT22;20194;50.950;5.346;2023-04-24T12:04:50;11.90;22.80
33903;DHT22;20194;50.950;5.346;2023-04-24T12:07:17;12.00;25.70
33903;DHT22;20194;50.950;5.346;2023-04-24T12:09:48;12.10;23.20
33903;DHT22;20194;50.950;5.346;2023-04-24T12:12:15;12.20;19.60
33903;DHT22;20194;50.950;5.346;2023-04-24T12:14:49;12.40;21.90
33903;DHT22;20194;50.950;5.346;2023-04-24T12:17:17;12.80;30.00
33903;DHT22;20194;50.950;5.346;2023-04-24T12:19:48;13.00;13.40
33903;DHT22;20194;50.950;5.346;2023-04-24T12:22:16;13.00;11.10
33903;DHT22;20194;50.950;5.346;2023-04-24T12:25:03;12.60;7.50
33903;DHT22;20194;50.950;5.346;2023-04-24T12:27:33;12.30;8.50
33903;DHT22;20194;50.950;5.346;2023-04-24T12:30:00;12.50;12.50
33903;DHT22;20194;50.950;5.346;2023-04-24T12:32:26;12.50;13.70
33903;DHT22;20194;50.950;5.346;2023-04-24T12:34:53;12.70;8.80
33903;DHT22;20194;50.950;5.346;2023-04-24T12:37:19;12.70;4.20
33903;DHT22;20194;50.950;5.346;2023-04-24T12:39:59;12.60;6.70
33903;DHT22;20194;50.950;5.346;2023-04-24T12:42:27;12.60;1.00
33903;DHT22;20194;50.950;5.346;2023-04-24T12:45:00;12.50;6.50
33903;DHT22;20194;50.950;5.346;2023-04-24T12:47:28;12.50;8.20
33903;DHT22;20194;50.950;5.346;2023-04-24T12:49:54;12.60;14.30
33903;DHT22;20194;50.950;5.346;2023-04-24T12:52:21;12.70;7.50
33903;DHT22;20194;50.950;5.346;2023-04-24T12:54:47;12.90;7.80
33903;DHT22;20194;50.950;5.346;2023-04-24T12:57:13;12.90;1.00
33903;DHT22;20194;50.950;5.346;2023-04-24T12:59:39;12.80;1.00
33903;DHT22;20194;50.950;5.346;2023-04-24T13:02:05;12.80;1.00
33903;DHT22;20194;50.950;5.346;2023-04-24T13:04:32;12.70;1.00
33903;DHT22;20194;50.950;5.346;2023-04-24T13:06:57;12.70;1.00
33903;DHT22;20194;50.950;5.346;2023-04-24T13:09:23;12.60;1.00
33903;DHT22;20194;50.950;5.346;2023-04-24T13:11:50;12.70;1.00
33903;DHT22;20194;50.950;5.346;2023-04-24T13:14:15;12.80;1.00
33903;DHT22;20194;50.950;5.346;2023-04-24T13:16:41;12.80;1.00
33903;DHT22;20194;50.950;5.346;2023-04-24T13:19:07;12.90;1.00
33903;DHT22;20194;50.950;5.346;2023-04-24T13:21:32;13.00;1.00
33903;DHT22;20194;50.950;5.346;2023-04-24T13:23:58;13.10;1.00
33903;DHT22;20194;50.950;5.346;2023-04-24T13:26:25;13.30;1.00
33903;DHT22;20194;50.950;5.346;2023-04-24T13:28:51;13.30;1.00
33903;DHT22;20194;50.950;5.346;2023-04-24T13:31:16;13.30;1.00
33903;DHT22;20194;50.950;5.346;2023-04-24T13:33:42;13.40;1.00
33903;DHT22;20194;50.950;5.346;2023-04-24T13:36:08;13.30;1.00
33903;DHT22;20194;50.950;5.346;2023-04-24T13:38:34;13.40;1.00
33903;DHT22;20194;50.950;5.346;2023-04-24T13:41:00;13.70;1.00
33903;DHT22;20194;50.950;5.346;2023-04-24T13:43:26;13.70;1.00
33903;DHT22;20194;50.950;5.346;2023-04-24T13:45:52;13.80;1.00
33903;DHT22;20194;50.950;5.346;2023-04-24T13:48:18;13.80;1.00
33903;DHT22;20194;50.950;5.346;2023-04-24T13:50:44;13.70;1.00
33903;DHT22;20194;50.950;5.346;2023-04-24T13:53:10;13.70;1.00
33903;DHT22;20194;50.950;5.346;2023-04-24T13:55:36;13.70;1.00
33903;DHT22;20194;50.950;5.346;2023-04-24T13:58:02;13.50;1.00
33903;DHT22;20194;50.950;5.346;2023-04-24T14:00:28;13.30;1.00
33903;DHT22;20194;50.950;5.346;2023-04-24T14:02:54;13.50;1.00
33903;DHT22;20194;50.950;5.346;2023-04-24T14:05:19;13.60;1.00
33903;DHT22;20194;50.950;5.346;2023-04-24T14:07:47;13.70;1.00
33903;DHT22;20194;50.950;5.346;2023-04-24T14:10:13;13.60;1.00
33903;DHT22;20194;50.950;5.346;2023-04-24T14:12:39;13.60;1.00
33903;DHT22;20194;50.950;5.346;2023-04-24T14:15:05;13.80;1.00
33903;DHT22;20194;50.950;5.346;2023-04-24T14:17:31;14.00;1.00
33903;DHT22;20194;50.950;5.346;2023-04-24T14:19:56;14.20;1.00
33903;DHT22;20194;50.950;5.346;2023-04-24T14:22:25;14.20;1.00
33903;DHT22;20194;50.950;5.346;2023-04-24T14:24:50;14.10;1.00
33903;DHT22;20194;50.950;5.346;2023-04-24T14:27:16;13.80;1.00
33903;DHT22;20194;50.950;5.346;2023-04-24T14:29:42;13.80;1.00
33903;DHT22;20194;50.950;5.346;2023-04-24T14:32:07;13.90;1.00
33903;DHT22;20194;50.950;5.346;2023-04-24T14:34:34;14.00;1.00
33903;DHT22;20194;50.950;5.346;2023-04-24T14:37:00;13.70;1.00
33903;DHT22;20194;50.950;5.346;2023-04-24T14:39:26;13.90;1.00
33903;DHT22;20194;50.950;5.346;2023-04-24T14:41:51;13.90;1.00
33903;DHT22;20194;50.950;5.346;2023-04-24T14:44:17;13.80;1.00
33903;DHT22;20194;50.950;5.346;2023-04-24T14:46:43;13.60;1.00
33903;DHT22;20194;50.950;5.346;2023-04-24T14:49:09;13.80;1.00
33903;DHT22;20194;50.950;5.346;2023-04-24T14:51:37;13.80;1.00
33903;DHT22;20194;50.950;5.346;2023-04-24T14:54:02;13.90;1.00
33903;DHT22;20194;50.950;5.346;2023-04-24T14:56:28;14.00;1.00
33903;DHT22;20194;50.950;5.346;2023-04-24T14:58:54;14.00;1.00
33903;DHT22;20194;50.950;5.346;2023-04-24T15:01:20;14.10;1.00
33903;DHT22;20194;50.950;5.346;2023-04-24T15:03:46;14.00;1.00
33903;DHT22;20194;50.950;5.346;2023-04-24T15:06:12;14.20;1.00
33903;DHT22;20194;50.950;5.346;2023-04-24T15:08:37;14.10;1.00
33903;DHT22;20194;50.950;5.346;2023-04-24T15:11:04;14.10;1.00
33903;DHT22;20194;50.950;5.346;2023-04-24T15:13:29;14.20;1.00
33903;DHT22;20194;50.950;5.346;2023-04-24T15:15:55;14.20;1.00
33903;DHT22;20194;50.950;5.346;2023-04-24T15:18:21;14.20;1.00
33903;DHT22;20194;50.950;5.346;2023-04-24T15:20:47;14.30;1.00
33903;DHT22;20194;50.950;5.346;2023-04-24T15:23:12;14.30;1.00
33903;DHT22;20194;50.950;5.346;2023-04-24T15:25:38;14.20;1.00
33903;DHT22;20194;50.950;5.346;2023-04-24T15:28:04;14.10;1.00
33903;DHT22;20194;50.950;5.346;2023-04-24T15:30:31;14.10;1.00
33903;DHT22;20194;50.950;5.346;2023-04-24T15:32:57;14.10;1.00
33903;DHT22;20194;50.950;5.346;2023-04-24T15:35:23;14.00;1.00
33903;DHT22;20194;50.950;5.346;2023-04-24T15:37:49;13.80;1.00
33903;DHT22;20194;50.950;5.346;2023-04-24T15:40:15;13.80;1.00
33903;DHT22;20194;50.950;5.346;2023-04-24T15:42:42;13.70;1.00
33903;DHT22;20194;50.950;5.346;2023-04-24T15:45:08;13.70;1.00
33903;DHT22;20194;50.950;5.346;2023-04-24T15:47:34;13.70;1.00
33903;DHT22;20194;50.950;5.346;2023-04-24T15:50:01;13.50;1.00
33903;DHT22;20194;50.950;5.346;2023-04-24T15:52:27;13.60;1.00
33903;DHT22;20194;50.950;5.346;2023-04-24T15:54:53;13.60;1.00